createdAt,value
2022-12-03T00:00:13.493Z,52.80
2022-12-03T00:02:41.190Z,52.80
2022-12-03T00:05:09.640Z,52.80
2022-12-03T00:07:36.337Z,52.80
2022-12-03T00:10:04.561Z,52.80
2022-12-03T00:12:31.235Z,52.80
2022-12-03T00:14:58.519Z,52.80
2022-12-03T00:17:25.384Z,52.80
2022-12-03T00:19:52.079Z,52.80
2022-12-03T00:22:18.903Z,52.80
2022-12-03T00:24:45.527Z,52.80
2022-12-03T00:27:12.348Z,52.80
2022-12-03T00:29:39.184Z,52.80
2022-12-03T00:32:06.089Z,52.70
2022-12-03T00:34:32.870Z,52.80
2022-12-03T00:36:59.652Z,52.80
2022-12-03T00:39:26.450Z,52.70
2022-12-03T00:41:53.138Z,52.80
2022-12-03T00:44:19.976Z,52.80
2022-12-03T00:46:46.697Z,52.90
2022-12-03T00:49:13.574Z,52.90
2022-12-03T00:51:40.314Z,52.80
2022-12-03T00:54:07.235Z,52.80
2022-12-03T00:56:34.128Z,52.90
2022-12-03T00:59:00.961Z,52.90
2022-12-03T01:01:27.717Z,52.80
2022-12-03T01:03:54.686Z,52.80
2022-12-03T01:06:21.276Z,52.80
2022-12-03T01:08:48.077Z,52.70
2022-12-03T01:11:33.423Z,52.70
2022-12-03T01:14:00.354Z,52.80
2022-12-03T01:16:27.119Z,52.80
2022-12-03T01:18:54.210Z,52.80
2022-12-03T01:21:20.816Z,52.80
2022-12-03T01:23:47.623Z,52.70
2022-12-03T01:26:14.278Z,52.80
2022-12-03T01:28:42.144Z,52.70
2022-12-03T01:31:29.044Z,52.70
2022-12-03T01:33:56.156Z,52.70
2022-12-03T01:36:22.852Z,52.70
2022-12-03T01:38:49.731Z,52.80
2022-12-03T01:41:20.637Z,52.70
2022-12-03T01:43:47.927Z,52.70
2022-12-03T01:46:20.117Z,52.80
2022-12-03T01:48:48.059Z,52.80
2022-12-03T01:51:15.322Z,52.80
2022-12-03T01:53:43.053Z,52.70
2022-12-03T01:56:14.531Z,52.70
2022-12-03T01:58:42.094Z,52.60
2022-12-03T02:01:17.479Z,52.60
2022-12-03T02:03:45.922Z,52.50
2022-12-03T02:06:19.609Z,52.50
2022-12-03T02:08:47.946Z,52.40
2022-12-03T02:11:29.704Z,52.40
2022-12-03T02:14:01.418Z,52.40
2022-12-03T02:16:29.541Z,52.40
2022-12-03T02:18:57.181Z,52.40
2022-12-03T02:21:30.275Z,52.40
2022-12-03T02:24:15.301Z,52.40
2022-12-03T02:26:42.238Z,52.40
2022-12-03T02:29:08.901Z,52.40
2022-12-03T02:31:35.768Z,52.40
2022-12-03T02:34:10.304Z,52.50
2022-12-03T02:36:38.251Z,52.50
2022-12-03T02:39:05.607Z,52.50
2022-12-03T02:41:51.249Z,52.40
2022-12-03T02:44:17.987Z,52.40
2022-12-03T02:46:45.207Z,52.40
2022-12-03T02:49:11.976Z,52.40
2022-12-03T02:51:38.752Z,52.30
2022-12-03T02:54:05.574Z,52.20
2022-12-03T02:56:33.065Z,52.20
2022-12-03T02:59:03.193Z,52.20
2022-12-03T03:01:30.085Z,52.20
2022-12-03T03:03:57.972Z,52.20
2022-12-03T03:06:24.783Z,52.30
2022-12-03T03:08:52.302Z,52.20
2022-12-03T03:11:19.310Z,52.20
2022-12-03T03:13:46.481Z,52.20
2022-12-03T03:16:13.583Z,52.20
2022-12-03T03:18:40.532Z,52.20
2022-12-03T03:21:07.747Z,52.20
2022-12-03T03:23:34.665Z,52.20
2022-12-03T03:26:05.422Z,52.10
2022-12-03T03:28:34.592Z,52.10
2022-12-03T03:31:04.119Z,52.10
2022-12-03T03:33:30.835Z,52.10
2022-12-03T03:35:59.994Z,52.10
2022-12-03T03:38:28.024Z,52.10
2022-12-03T03:40:56.371Z,52.10
2022-12-03T03:43:24.135Z,52.10
2022-12-03T03:45:52.289Z,52.10
2022-12-03T03:48:20.037Z,52.10
2022-12-03T03:50:47.405Z,52.10
2022-12-03T03:53:14.847Z,52.10
2022-12-03T03:55:42.262Z,52.10
2022-12-03T03:58:09.369Z,52.00
2022-12-03T04:00:37.084Z,52.10
2022-12-03T04:03:05.196Z,52.10
2022-12-03T04:05:32.263Z,52.10
2022-12-03T04:07:59.419Z,52.10
2022-12-03T04:10:44.831Z,52.10
2022-12-03T04:13:11.704Z,52.00
2022-12-03T04:15:38.368Z,52.00
2022-12-03T04:18:24.111Z,52.00
2022-12-03T04:20:50.828Z,52.00
2022-12-03T04:23:17.631Z,52.00
2022-12-03T04:26:02.747Z,52.00
2022-12-03T04:28:48.154Z,52.00
2022-12-03T04:31:33.737Z,52.00
2022-12-03T04:34:19.194Z,52.00
2022-12-03T04:36:46.787Z,52.10
2022-12-03T04:39:13.649Z,52.10
2022-12-03T04:41:40.396Z,52.10
2022-12-03T04:44:25.603Z,52.20
2022-12-03T04:46:52.410Z,52.20
2022-12-03T04:49:19.050Z,52.20
2022-12-03T04:51:45.825Z,52.30
2022-12-03T04:54:12.556Z,52.30
2022-12-03T04:56:39.205Z,52.20
2022-12-03T04:59:08.091Z,52.20
2022-12-03T05:01:38.356Z,52.30
2022-12-03T05:04:05.124Z,52.30
2022-12-03T05:06:31.931Z,52.30
2022-12-03T05:08:58.674Z,52.20
2022-12-03T05:11:25.489Z,52.20
2022-12-03T05:13:52.603Z,52.20
2022-12-03T05:16:19.254Z,52.20
2022-12-03T05:18:46.004Z,52.30
2022-12-03T05:21:12.871Z,52.30
2022-12-03T05:23:39.893Z,52.30
2022-12-03T05:26:06.691Z,52.30
2022-12-03T05:28:33.812Z,52.40
2022-12-03T05:31:00.701Z,52.40
2022-12-03T05:33:27.516Z,52.40
2022-12-03T05:35:54.401Z,52.40
2022-12-03T05:38:21.178Z,52.40
2022-12-03T05:40:47.853Z,52.30
2022-12-03T05:43:14.579Z,52.30
2022-12-03T05:45:42.699Z,52.20
2022-12-03T05:48:11.796Z,52.30
2022-12-03T05:50:40.177Z,52.20
2022-12-03T05:53:17.298Z,52.20
2022-12-03T05:55:44.062Z,52.20
2022-12-03T05:58:11.608Z,52.20
2022-12-03T06:00:42.836Z,52.20
2022-12-03T06:03:10.629Z,52.30
2022-12-03T06:05:37.631Z,52.30
2022-12-03T06:08:04.563Z,52.30
2022-12-03T06:10:31.466Z,52.30
2022-12-03T06:12:58.268Z,52.30
2022-12-03T06:15:25.021Z,52.20
2022-12-03T06:17:52.275Z,52.30
2022-12-03T06:20:20.979Z,52.30
2022-12-03T06:22:49.229Z,52.30
2022-12-03T06:25:16.600Z,52.30
2022-12-03T06:27:43.539Z,52.30
2022-12-03T06:30:12.155Z,52.20
2022-12-03T06:32:38.924Z,52.20
2022-12-03T06:35:05.904Z,52.20
2022-12-03T06:37:32.588Z,52.20
2022-12-03T06:39:59.238Z,52.20
2022-12-03T06:42:25.900Z,52.20
2022-12-03T06:44:53.548Z,52.20
2022-12-03T06:47:20.628Z,52.20
2022-12-03T06:49:47.344Z,52.20
2022-12-03T06:52:14.051Z,52.20
2022-12-03T06:54:40.735Z,52.10
2022-12-03T06:57:07.568Z,52.10
2022-12-03T06:59:36.315Z,52.20
2022-12-03T07:02:04.156Z,52.20
2022-12-03T07:04:31.049Z,52.20
2022-12-03T07:06:57.806Z,52.20
2022-12-03T07:09:24.794Z,52.20
2022-12-03T07:11:51.563Z,52.20
2022-12-03T07:14:18.491Z,52.20
2022-12-03T07:16:45.205Z,52.20
2022-12-03T07:19:12.338Z,52.20
2022-12-03T07:21:39.106Z,52.20
2022-12-03T07:24:06.415Z,52.20
2022-12-03T07:26:33.228Z,52.10
2022-12-03T07:29:00.085Z,52.20
2022-12-03T07:31:27.231Z,52.10
2022-12-03T07:33:54.869Z,52.20
2022-12-03T07:36:21.726Z,52.20
2022-12-03T07:38:48.810Z,52.30
2022-12-03T07:41:15.643Z,52.30
2022-12-03T07:43:42.289Z,52.20
2022-12-03T07:46:09.083Z,52.20
2022-12-03T07:48:35.924Z,52.20
2022-12-03T07:51:02.716Z,52.30
2022-12-03T07:53:29.626Z,52.30
2022-12-03T07:55:56.244Z,52.20
2022-12-03T07:58:23.063Z,52.20
2022-12-03T08:00:49.749Z,52.20
2022-12-03T08:03:16.555Z,52.20
2022-12-03T08:05:43.364Z,52.20
2022-12-03T08:08:10.634Z,52.30
2022-12-03T08:10:37.407Z,52.20
2022-12-03T08:13:10.859Z,52.20
2022-12-03T08:15:39.661Z,52.30
2022-12-03T08:18:21.072Z,52.30
2022-12-03T08:20:50.148Z,52.20
2022-12-03T08:23:25.921Z,52.30
2022-12-03T08:25:53.316Z,52.30
2022-12-03T08:28:19.999Z,52.80
2022-12-03T08:31:18.383Z,52.30
2022-12-03T08:33:47.331Z,52.20
2022-12-03T08:36:30.672Z,52.20
2022-12-03T08:39:17.602Z,52.20
2022-12-03T08:42:02.959Z,52.10
2022-12-03T08:44:40.997Z,52.20
2022-12-03T08:47:13.814Z,52.20
2022-12-03T08:49:41.258Z,52.20
2022-12-03T08:52:20.244Z,52.20
2022-12-03T08:54:56.999Z,52.10
2022-12-03T08:57:31.749Z,52.10
2022-12-03T09:00:20.540Z,52.10
2022-12-03T09:03:10.865Z,52.10
2022-12-03T09:05:37.595Z,52.20
2022-12-03T09:08:04.273Z,52.30
2022-12-03T09:10:30.986Z,52.20
2022-12-03T09:12:57.743Z,52.30
2022-12-03T09:15:24.398Z,52.20
2022-12-03T09:18:06.406Z,52.20
2022-12-03T09:20:33.071Z,52.20
2022-12-03T09:22:59.920Z,52.20
2022-12-03T09:25:26.551Z,52.10
2022-12-03T09:27:53.449Z,52.10
2022-12-03T09:30:20.357Z,52.20
2022-12-03T09:32:47.122Z,52.20
2022-12-03T09:35:14.074Z,52.10
2022-12-03T09:37:40.737Z,52.10
2022-12-03T09:40:08.775Z,52.10
2022-12-03T09:42:36.555Z,52.10
2022-12-03T09:45:10.661Z,52.10
2022-12-03T09:47:39.295Z,52.00
2022-12-03T09:50:06.822Z,52.00
2022-12-03T09:52:34.242Z,52.00
2022-12-03T09:55:07.904Z,52.00
2022-12-03T09:57:34.696Z,52.00
2022-12-03T10:00:01.333Z,52.00
2022-12-03T10:02:30.688Z,52.00
2022-12-03T10:04:58.271Z,52.00
2022-12-03T10:07:26.087Z,52.00
2022-12-03T10:09:53.309Z,52.00
2022-12-03T10:12:24.270Z,52.00
2022-12-03T10:14:52.960Z,52.00
2022-12-03T10:17:19.891Z,52.00
2022-12-03T10:19:48.452Z,52.00
2022-12-03T10:22:15.168Z,51.90
2022-12-03T10:24:42.614Z,51.90
2022-12-03T10:27:30.112Z,51.90
2022-12-03T10:29:59.937Z,51.70
2022-12-03T10:32:39.046Z,51.90
2022-12-03T10:35:10.082Z,52.00
2022-12-03T10:37:36.871Z,52.00
2022-12-03T10:40:13.045Z,51.90
2022-12-03T10:42:41.064Z,51.80
2022-12-03T10:45:16.716Z,51.80
2022-12-03T10:48:01.423Z,51.70
2022-12-03T10:50:29.265Z,51.80
2022-12-03T10:52:56.203Z,51.80
2022-12-03T10:55:23.106Z,51.80
2022-12-03T10:57:50.004Z,51.80
2022-12-03T11:00:20.716Z,51.90
2022-12-03T11:02:54.835Z,51.90
2022-12-03T11:05:27.404Z,52.00
2022-12-03T11:07:54.562Z,52.50
2022-12-03T11:10:21.464Z,52.00
2022-12-03T11:13:25.892Z,52.00
2022-12-03T11:15:53.238Z,52.00
2022-12-03T11:18:38.052Z,52.10
2022-12-03T11:21:11.063Z,51.90
2022-12-03T11:23:47.232Z,52.00
2022-12-03T11:26:29.033Z,52.00
2022-12-03T11:28:58.061Z,51.80
2022-12-03T11:31:44.220Z,51.80
2022-12-03T11:34:23.344Z,51.80
2022-12-03T11:37:12.028Z,51.70
2022-12-03T11:39:45.149Z,51.60
2022-12-03T11:42:26.908Z,51.60
2022-12-03T11:45:05.843Z,51.70
2022-12-03T11:47:37.367Z,51.70
2022-12-03T11:50:24.476Z,51.70
2022-12-03T11:53:16.261Z,51.60
2022-12-03T11:56:06.141Z,51.60
2022-12-03T11:58:36.587Z,51.80
2022-12-03T12:01:05.477Z,51.80
2022-12-03T12:03:49.773Z,51.80
2022-12-03T12:06:19.882Z,51.80
2022-12-03T12:08:50.918Z,51.80
2022-12-03T12:11:19.559Z,51.80
2022-12-03T12:14:04.096Z,51.90
2022-12-03T12:16:49.925Z,51.80
2022-12-03T12:19:42.178Z,51.70
2022-12-03T12:22:20.767Z,51.70
2022-12-03T12:24:51.558Z,51.70
2022-12-03T12:27:33.181Z,51.80
2022-12-03T12:30:02.963Z,51.70
2022-12-03T12:32:32.048Z,51.70
2022-12-03T12:35:21.642Z,51.70
2022-12-03T12:37:59.753Z,51.60
2022-12-03T12:40:30.640Z,51.70
2022-12-03T12:43:05.344Z,51.80
2022-12-03T12:45:37.535Z,51.70
2022-12-03T12:48:10.017Z,51.80
2022-12-03T12:50:37.453Z,51.80
2022-12-03T12:53:24.912Z,51.70
2022-12-03T12:56:23.035Z,51.70
2022-12-03T12:58:50.718Z,51.60
2022-12-03T13:01:22.373Z,51.70
2022-12-03T13:03:51.474Z,51.70
2022-12-03T13:06:21.026Z,51.70
2022-12-03T13:08:50.289Z,51.70
2022-12-03T13:11:37.055Z,51.70
2022-12-03T13:14:23.618Z,51.80
2022-12-03T13:16:55.824Z,51.70
2022-12-03T13:19:28.119Z,51.70
2022-12-03T13:22:02.649Z,51.70
2022-12-03T13:24:35.106Z,51.70
2022-12-03T13:27:19.799Z,51.80
2022-12-03T13:29:59.156Z,51.70
2022-12-03T13:32:33.511Z,51.80
2022-12-03T13:35:10.122Z,51.70
2022-12-03T13:37:37.594Z,51.70
2022-12-03T13:40:25.541Z,51.70
2022-12-03T13:42:53.158Z,51.70
2022-12-03T13:45:19.809Z,51.70
2022-12-03T13:47:53.956Z,51.60
2022-12-03T13:50:20.695Z,51.60
2022-12-03T13:52:47.736Z,51.60
2022-12-03T13:55:25.339Z,51.60
2022-12-03T13:57:52.474Z,51.50
2022-12-03T14:00:19.791Z,51.60
2022-12-03T14:02:46.762Z,51.60
2022-12-03T14:05:13.612Z,51.50
2022-12-03T14:07:40.482Z,51.60
2022-12-03T14:10:09.471Z,51.50
2022-12-03T14:12:36.933Z,51.50
2022-12-03T14:15:05.667Z,51.50
2022-12-03T14:17:32.954Z,51.50
2022-12-03T14:20:03.745Z,51.50
2022-12-03T14:22:31.083Z,51.50
2022-12-03T14:24:58.134Z,51.50
2022-12-03T14:27:25.321Z,51.50
2022-12-03T14:29:52.719Z,51.50
2022-12-03T14:32:19.616Z,51.50
2022-12-03T14:34:46.388Z,51.50
2022-12-03T14:37:13.111Z,51.50
2022-12-03T14:39:40.071Z,51.50
2022-12-03T14:42:16.416Z,51.40
2022-12-03T14:44:46.047Z,51.40
2022-12-03T14:47:13.551Z,51.40
2022-12-03T14:49:40.422Z,51.40
2022-12-03T14:52:11.771Z,51.50
2022-12-03T14:54:40.503Z,51.50
2022-12-03T14:57:07.368Z,51.50
2022-12-03T14:59:34.169Z,51.50
2022-12-03T15:02:01.227Z,51.40
2022-12-03T15:04:28.065Z,51.40
2022-12-03T15:06:55.132Z,51.40
2022-12-03T15:09:21.918Z,51.40
2022-12-03T15:11:48.610Z,51.40
2022-12-03T15:14:15.577Z,51.40
2022-12-03T15:16:42.629Z,51.40
2022-12-03T15:19:09.559Z,51.40
2022-12-03T15:21:36.448Z,51.40
2022-12-03T15:24:03.376Z,51.40
2022-12-03T15:26:30.393Z,51.90
2022-12-03T15:28:57.293Z,51.50
2022-12-03T15:31:24.003Z,51.50
2022-12-03T15:33:50.692Z,51.50
2022-12-03T15:36:17.651Z,51.50
2022-12-03T15:38:44.509Z,51.50
2022-12-03T15:41:29.841Z,51.50
2022-12-03T15:43:59.385Z,51.40
2022-12-03T15:46:28.105Z,51.40
2022-12-03T15:48:55.539Z,51.40
2022-12-03T15:51:22.624Z,51.50
2022-12-03T15:53:49.601Z,51.60
2022-12-03T15:56:16.535Z,51.40
2022-12-03T15:58:43.254Z,51.40
2022-12-03T16:01:10.441Z,51.40
2022-12-03T16:03:37.373Z,51.50
2022-12-03T16:06:04.323Z,51.50
2022-12-03T16:08:31.282Z,51.50
2022-12-03T16:10:58.154Z,51.60
2022-12-03T16:13:24.850Z,51.50
2022-12-03T16:15:51.830Z,51.50
2022-12-03T16:18:18.575Z,51.50
2022-12-03T16:20:45.407Z,51.60
2022-12-03T16:23:12.016Z,51.50
2022-12-03T16:25:38.629Z,51.60
2022-12-03T16:28:06.143Z,51.60
2022-12-03T16:30:32.852Z,51.60
2022-12-03T16:32:59.468Z,51.60
2022-12-03T16:35:26.162Z,51.60
2022-12-03T16:37:52.831Z,51.60
2022-12-03T16:40:19.568Z,51.60
2022-12-03T16:42:46.380Z,51.60
2022-12-03T16:45:21.844Z,51.60
2022-12-03T16:47:49.672Z,51.60
2022-12-03T16:50:24.301Z,51.60
2022-12-03T16:52:54.566Z,51.60
2022-12-03T16:55:21.267Z,51.60
2022-12-03T16:57:47.890Z,51.60
2022-12-03T17:00:15.145Z,51.60
2022-12-03T17:02:41.900Z,51.60
2022-12-03T17:05:08.759Z,51.50
2022-12-03T17:07:35.530Z,51.60
2022-12-03T17:10:02.521Z,51.60
2022-12-03T17:12:42.228Z,51.60
2022-12-03T17:15:16.040Z,51.60
2022-12-03T17:17:42.751Z,51.50
2022-12-03T17:20:12.408Z,51.50
2022-12-03T17:22:39.228Z,51.50
2022-12-03T17:25:06.253Z,51.50
2022-12-03T17:27:33.133Z,51.50
2022-12-03T17:29:59.882Z,51.60
2022-12-03T17:32:27.024Z,51.60
2022-12-03T17:34:53.710Z,51.60
2022-12-03T17:37:20.433Z,51.60
2022-12-03T17:39:47.091Z,51.60
2022-12-03T17:42:13.791Z,51.60
2022-12-03T17:44:40.593Z,51.50
2022-12-03T17:47:07.310Z,51.60
2022-12-03T17:49:33.992Z,51.60
2022-12-03T17:52:00.659Z,51.60
2022-12-03T17:54:43.178Z,51.60
2022-12-03T17:57:14.214Z,51.60
2022-12-03T17:59:41.304Z,51.50
2022-12-03T18:02:07.929Z,51.50
2022-12-03T18:04:34.840Z,51.50
2022-12-03T18:07:02.604Z,51.50
2022-12-03T18:09:29.418Z,51.60
2022-12-03T18:11:56.335Z,51.50
2022-12-03T18:14:23.214Z,51.50
2022-12-03T18:16:49.861Z,51.60
2022-12-03T18:19:16.656Z,51.50
2022-12-03T18:21:43.631Z,51.60
2022-12-03T18:24:10.542Z,51.50
2022-12-03T18:26:38.054Z,51.50
2022-12-03T18:29:04.707Z,51.50
2022-12-03T18:31:31.586Z,51.50
2022-12-03T18:33:58.458Z,51.50
2022-12-03T18:36:29.819Z,51.50
2022-12-03T18:39:00.478Z,51.50
2022-12-03T18:41:27.853Z,51.50
2022-12-03T18:43:55.115Z,51.50
2022-12-03T18:49:10.170Z,51.60
2022-12-03T18:51:37.333Z,51.60
2022-12-03T18:54:05.808Z,52.00
2022-12-03T18:56:32.642Z,51.60
2022-12-03T18:58:59.439Z,51.60
2022-12-03T19:01:26.257Z,51.60
2022-12-03T19:03:54.429Z,51.60
2022-12-03T19:06:21.527Z,51.60
2022-12-03T19:08:49.626Z,51.60
2022-12-03T19:11:16.359Z,51.60
2022-12-03T19:13:43.269Z,51.60
2022-12-03T19:16:10.480Z,51.60
2022-12-03T19:18:37.686Z,51.60
2022-12-03T19:21:09.345Z,51.60
2022-12-03T19:23:36.982Z,51.60
2022-12-03T19:26:06.137Z,51.60
2022-12-03T19:28:33.802Z,51.60
2022-12-03T19:31:10.985Z,51.60
2022-12-03T19:33:38.250Z,51.60
2022-12-03T19:36:06.997Z,51.50
2022-12-03T19:38:34.255Z,51.60
2022-12-03T19:41:11.340Z,51.60
2022-12-03T19:43:38.620Z,51.60
2022-12-03T19:46:08.141Z,51.60
2022-12-03T19:48:36.296Z,51.60
2022-12-03T19:51:32.593Z,51.60
2022-12-03T19:53:51.067Z,51.60
2022-12-03T19:56:19.563Z,51.60
2022-12-03T19:58:47.440Z,51.60
2022-12-03T20:01:24.735Z,51.60
2022-12-03T20:03:53.495Z,51.60
2022-12-03T20:06:25.818Z,51.60
2022-12-03T20:09:00.815Z,51.60
2022-12-03T20:11:30.513Z,51.60
2022-12-03T20:13:59.300Z,51.60
2022-12-03T20:16:26.898Z,51.60
2022-12-03T20:18:57.356Z,51.60
2022-12-03T20:21:24.403Z,51.60
2022-12-03T20:23:51.081Z,51.60
2022-12-03T20:26:19.998Z,51.60
2022-12-03T20:28:50.364Z,51.60
2022-12-03T20:31:19.797Z,51.60
2022-12-03T20:33:49.208Z,51.60
2022-12-03T20:36:18.636Z,51.60
2022-12-03T20:38:45.711Z,51.60
2022-12-03T20:41:18.511Z,51.60
2022-12-03T20:43:45.664Z,51.60
2022-12-03T20:46:17.173Z,51.60
2022-12-03T20:48:44.846Z,51.60
2022-12-03T20:51:14.382Z,51.50
2022-12-03T20:53:42.381Z,51.60
2022-12-03T20:56:10.182Z,51.60
2022-12-03T20:58:37.502Z,51.60
2022-12-03T21:01:16.003Z,51.60
2022-12-03T21:03:44.306Z,51.60
2022-12-03T21:06:12.332Z,51.60
2022-12-03T21:08:42.251Z,51.60
2022-12-03T21:11:18.730Z,51.60
2022-12-03T21:13:46.480Z,51.60
2022-12-03T21:16:16.617Z,51.60
2022-12-03T21:18:44.061Z,51.60
2022-12-03T21:21:12.502Z,52.10
2022-12-03T21:23:39.451Z,51.60
2022-12-03T21:26:14.814Z,51.60
2022-12-03T21:28:43.476Z,52.00
2022-12-03T21:31:12.820Z,51.60
2022-12-03T21:33:40.579Z,51.60
2022-12-03T21:36:08.156Z,51.60
2022-12-03T21:38:36.564Z,51.60
2022-12-03T21:41:04.479Z,51.60
2022-12-03T21:43:32.424Z,51.60
2022-12-03T21:45:59.384Z,51.60
2022-12-03T21:48:26.090Z,51.60
2022-12-03T21:51:04.641Z,51.60
2022-12-03T21:53:32.981Z,51.50
2022-12-03T21:56:00.316Z,51.50
2022-12-03T21:58:27.017Z,51.60
2022-12-03T22:00:53.893Z,51.60
2022-12-03T22:03:20.722Z,51.60
2022-12-03T22:05:48.851Z,51.60
2022-12-03T22:08:15.709Z,51.50
2022-12-03T22:10:43.078Z,52.00
2022-12-03T22:13:09.924Z,51.60
2022-12-03T22:15:40.121Z,51.60
2022-12-03T22:18:07.423Z,51.60
2022-12-03T22:20:34.103Z,51.60
2022-12-03T22:23:00.959Z,51.60
2022-12-03T22:25:27.779Z,51.60
2022-12-03T22:27:54.380Z,51.60
2022-12-03T22:30:21.187Z,51.50
2022-12-03T22:32:48.032Z,51.50
2022-12-03T22:35:14.877Z,51.50
2022-12-03T22:37:41.578Z,51.50
2022-12-03T22:40:08.549Z,51.50
2022-12-03T22:42:35.253Z,51.50
2022-12-03T22:45:02.120Z,51.50
2022-12-03T22:47:28.790Z,51.50
2022-12-03T22:49:55.969Z,51.60
2022-12-03T22:52:23.099Z,51.60
2022-12-03T22:54:49.835Z,51.60
2022-12-03T22:57:16.850Z,51.60
2022-12-03T22:59:43.730Z,51.60
2022-12-03T23:02:10.560Z,51.60
2022-12-03T23:04:37.262Z,51.60
2022-12-03T23:07:04.185Z,51.50
2022-12-03T23:09:30.842Z,51.50
2022-12-03T23:11:57.773Z,51.50
2022-12-03T23:14:24.434Z,51.50
2022-12-03T23:16:51.184Z,51.50
2022-12-03T23:19:19.836Z,51.50
2022-12-03T23:21:47.177Z,51.50
2022-12-03T23:24:13.837Z,51.50
2022-12-03T23:26:40.845Z,51.40
2022-12-03T23:29:08.376Z,51.50
2022-12-03T23:31:36.157Z,51.50
2022-12-03T23:34:03.206Z,51.40
2022-12-03T23:36:32.827Z,51.40
2022-12-03T23:39:00.355Z,51.40
2022-12-03T23:41:27.128Z,51.40
2022-12-03T23:43:54.068Z,51.40
2022-12-03T23:46:23.910Z,51.40
2022-12-03T23:48:51.436Z,51.40
2022-12-03T23:51:20.912Z,51.40
2022-12-03T23:53:47.684Z,51.40
2022-12-03T23:56:22.995Z,51.40
2022-12-03T23:58:50.423Z,51.30
